Time;durP1;ratioP1;P1;durP2;ratioP2;P2;SDS_P1;SDS_P2;PMS_P1;PMS_P2;Temp;Humidity;BMP_temperature;BMP_pressure;BME280_temperature;BME280_humidity;BME280_pressure;Samples;Min_cycle;Max_cycle;Signal;HPM_P1;HPM_P2
2021/03/18 00:01:37;;;;;;;12.75;2.22;;;1.80;99.60;;;;;;4995344;28;20049;-64
2021/03/18 00:04:04;;;;;;;9.48;2.72;;;1.90;99.50;;;;;;5000680;28;20392;-64
2021/03/18 00:06:31;;;;;;;10.13;2.20;;;1.80;99.50;;;;;;4996322;28;20180;-64
2021/03/18 00:08:56;;;;;;;10.70;2.75;;;1.80;99.60;;;;;;4995766;28;20046;-64
2021/03/18 00:11:27;;;;;;;15.27;2.47;;;1.90;99.70;;;;;;4996780;28;20390;-64
2021/03/18 00:13:53;;;;;;;11.13;2.03;;;1.80;99.60;;;;;;4997065;28;20084;-64
2021/03/18 00:16:19;;;;;;;6.75;1.70;;;1.80;99.50;;;;;;4996274;28;20528;-64
2021/03/18 00:18:47;;;;;;;9.80;2.97;;;1.90;99.50;;;;;;4996289;28;20037;-64
2021/03/18 00:21:14;;;;;;;10.43;2.30;;;1.80;99.30;;;;;;4999087;28;20033;-64
2021/03/18 00:23:40;;;;;;;10.18;2.25;;;1.70;99.60;;;;;;4997930;28;20052;-64
2021/03/18 00:26:06;;;;;;;11.57;1.83;;;1.60;99.70;;;;;;4997423;28;20128;-64
2021/03/18 00:28:33;;;;;;;8.10;1.77;;;1.60;99.40;;;;;;4998353;28;20137;-64
2021/03/18 00:30:59;;;;;;;4.60;1.70;;;1.60;99.40;;;;;;4998885;28;20039;-64
2021/03/18 00:33:27;;;;;;;7.13;1.98;;;1.60;99.30;;;;;;5002446;28;20754;-64
2021/03/18 00:35:52;;;;;;;5.18;1.67;;;1.60;99.20;;;;;;4981626;28;20479;-64
2021/03/18 00:38:19;;;;;;;7.85;1.88;;;1.70;99.20;;;;;;5001559;28;20069;-64
2021/03/18 00:40:48;;;;;;;9.43;2.03;;;1.60;99.20;;;;;;4999913;28;20081;-64
2021/03/18 00:43:17;;;;;;;8.18;1.95;;;1.60;99.20;;;;;;4995919;28;20052;-64
2021/03/18 00:45:45;;;;;;;12.07;1.80;;;1.60;99.30;;;;;;4996879;28;20038;-64
2021/03/18 00:48:13;;;;;;;5.75;1.58;;;1.60;99.40;;;;;;4998279;28;20051;-64
2021/03/18 00:50:50;;;;;;;6.72;1.55;;;1.60;99.50;;;;;;4997274;28;20527;-64
2021/03/18 00:53:26;;;;;;;8.80;2.08;;;1.60;99.60;;;;;;4996684;28;20136;-64
2021/03/18 00:55:52;;;;;;;8.85;2.08;;;1.50;99.70;;;;;;4981042;28;20125;-64
2021/03/18 00:58:19;;;;;;;7.45;2.15;;;1.50;99.60;;;;;;4995091;28;20037;-64
2021/03/18 01:00:51;;;;;;;13.90;2.20;;;1.60;99.60;;;;;;4997994;28;20034;-64
2021/03/18 01:03:17;;;;;;;10.10;1.77;;;1.50;99.90;;;;;;4998318;28;20702;-64
2021/03/18 01:05:46;;;;;;;9.68;2.28;;;1.50;99.90;;;;;;4997039;28;20061;-64
2021/03/18 01:08:14;;;;;;;14.10;2.35;;;1.50;99.90;;;;;;4981369;28;20578;-64
2021/03/18 01:10:52;;;;;;;16.77;2.33;;;1.40;99.70;;;;;;5005640;28;20058;-64
2021/03/18 01:13:19;;;;;;;12.82;2.55;;;1.50;99.90;;;;;;5004917;28;20053;-64
2021/03/18 01:15:47;;;;;;;14.18;3.63;;;1.40;99.90;;;;;;5000944;28;20050;-65
2021/03/18 01:18:14;;;;;;;7.93;1.83;;;1.70;99.90;;;;;;5000944;28;20062;-65
2021/03/18 01:20:40;;;;;;;10.27;2.50;;;1.40;99.90;;;;;;5002021;28;20130;-64
2021/03/18 01:23:06;;;;;;;12.93;3.13;;;1.40;99.90;;;;;;5003444;28;20077;-64
2021/03/18 01:25:31;;;;;;;13.48;2.38;;;1.40;99.90;;;;;;5000437;28;20034;-64
2021/03/18 01:27:57;;;;;;;10.02;2.40;;;1.60;99.90;;;;;;5001644;28;20084;-64
2021/03/18 01:30:24;;;;;;;12.20;1.75;;;1.40;99.90;;;;;;5000868;28;20069;-65
2021/03/18 01:32:50;;;;;;;8.20;3.90;;;1.40;99.90;;;;;;5003481;28;20060;-65
2021/03/18 01:35:19;;;;;;;11.07;2.42;;;1.40;99.90;;;;;;5000990;28;20037;-64
2021/03/18 01:37:45;;;;;;;7.60;2.13;;;1.40;99.90;;;;;;4998494;28;20030;-64
2021/03/18 01:40:13;;;;;;;9.95;2.55;;;1.40;99.90;;;;;;5000812;28;20069;-65
2021/03/18 01:42:39;;;;;;;10.88;2.45;;;1.40;99.90;;;;;;5000220;28;20399;-65
2021/03/18 01:45:07;;;;;;;6.57;2.20;;;1.30;99.90;;;;;;5000216;28;20053;-65
2021/03/18 01:47:34;;;;;;;9.63;1.95;;;1.40;99.90;;;;;;4998430;28;20041;-64
2021/03/18 01:50:01;;;;;;;8.30;2.15;;;1.30;99.90;;;;;;5002430;28;21648;-64
2021/03/18 01:52:27;;;;;;;7.53;2.08;;;1.40;99.90;;;;;;4999058;28;20030;-65
2021/03/18 01:54:53;;;;;;;7.82;2.20;;;1.40;99.90;;;;;;4998490;28;20509;-65
2021/03/18 01:57:18;;;;;;;6.40;2.53;;;1.40;99.90;;;;;;4997458;28;20497;-64
2021/03/18 01:59:44;;;;;;;13.75;3.22;;;1.50;99.90;;;;;;5001003;28;20121;-64
2021/03/18 02:02:10;;;;;;;8.05;2.20;;;1.40;99.90;;;;;;4996988;28;20509;-65
2021/03/18 02:04:36;;;;;;;9.75;3.10;;;1.40;99.90;;;;;;5002548;28;20038;-65
2021/03/18 02:07:02;;;;;;;20.10;3.10;;;1.60;99.90;;;;;;4999435;28;20177;-65
2021/03/18 02:09:28;;;;;;;11.90;2.92;;;1.50;99.90;;;;;;4983853;28;22106;-65
2021/03/18 02:11:53;;;;;;;12.45;2.85;;;1.50;99.90;;;;;;4998560;28;20049;-64
2021/03/18 02:14:19;;;;;;;10.55;2.97;;;1.50;99.90;;;;;;4999861;28;20038;-65
2021/03/18 02:16:51;;;;;;;13.68;2.97;;;1.50;99.90;;;;;;4998161;28;20045;-65
2021/03/18 02:19:36;;;;;;;8.23;2.35;;;1.50;99.90;;;;;;4997984;28;20501;-65
2021/03/18 02:22:53;;;;;;;10.30;2.40;;;1.50;99.90;;;;;;4999763;28;20038;-65
2021/03/18 02:25:25;;;;;;;8.32;2.40;;;1.50;99.90;;;;;;5002243;28;20042;-65
2021/03/18 02:28:12;;;;;;;12.48;2.90;;;1.50;99.90;;;;;;5003469;28;20046;-65
2021/03/18 02:30:47;;;;;;;8.73;2.15;;;1.50;99.90;;;;;;4999347;28;20116;-65
2021/03/18 02:33:37;;;;;;;9.63;2.30;;;1.50;99.90;;;;;;4998758;28;20669;-65
2021/03/18 02:36:07;;;;;;;10.27;2.88;;;1.50;99.90;;;;;;5000142;28;20034;-64
2021/03/18 02:38:58;;;;;;;12.93;2.83;;;1.50;99.90;;;;;;4980395;28;20038;-65
2021/03/18 02:41:48;;;;;;;9.82;3.05;;;1.50;99.90;;;;;;4995460;28;20045;-65
2021/03/18 02:44:23;;;;;;;8.65;2.67;;;1.60;99.90;;;;;;4999164;28;20077;-65
2021/03/18 02:47:11;;;;;;;13.32;3.05;;;1.50;99.90;;;;;;5002416;28;20623;-64
2021/03/18 02:49:44;;;;;;;9.55;2.40;;;1.40;99.90;;;;;;5000867;28;20511;-65
2021/03/18 02:52:15;;;;;;;8.05;2.80;;;1.40;99.90;;;;;;5001742;28;20042;-65
2021/03/18 02:54:42;;;;;;;12.65;3.58;;;1.40;99.90;;;;;;5000043;28;20034;-65
2021/03/18 02:57:11;;;;;;;10.55;3.20;;;1.40;99.90;;;;;;4997436;28;20046;-65
2021/03/18 02:59:39;;;;;;;9.23;3.15;;;1.40;99.90;;;;;;5001811;28;20873;-64
2021/03/18 03:02:10;;;;;;;10.70;2.83;;;1.40;99.90;;;;;;4998582;28;20091;-65
2021/03/18 03:04:38;;;;;;;10.50;2.85;;;1.40;99.90;;;;;;5001034;28;20520;-65
2021/03/18 03:07:06;;;;;;;14.95;3.30;;;1.40;99.90;;;;;;4999789;28;22132;-64
2021/03/18 03:09:34;;;;;;;13.63;2.83;;;1.30;99.90;;;;;;4998874;28;20062;-64
2021/03/18 03:12:02;;;;;;;12.90;2.92;;;1.40;99.90;;;;;;4993102;28;20523;-65
2021/03/18 03:14:30;;;;;;;10.40;3.28;;;1.30;99.90;;;;;;5000135;28;20085;-65
2021/03/18 03:16:56;;;;;;;11.93;3.08;;;1.50;99.90;;;;;;4980551;28;20435;-65
2021/03/18 03:19:23;;;;;;;12.65;3.60;;;1.40;99.90;;;;;;4997928;28;20052;-65
2021/03/18 03:21:50;;;;;;;10.52;3.17;;;1.30;99.90;;;;;;4997393;28;20038;-65
2021/03/18 03:24:17;;;;;;;8.82;3.90;;;1.30;99.90;;;;;;5000382;28;20033;-64
2021/03/18 03:26:43;;;;;;;9.30;2.78;;;1.40;99.90;;;;;;4985982;28;20101;-65
2021/03/18 03:29:10;;;;;;;7.75;2.50;;;1.30;99.90;;;;;;5002222;28;20066;-64
2021/03/18 03:31:36;;;;;;;12.00;2.63;;;1.30;99.90;;;;;;5000690;28;20076;-65
2021/03/18 03:34:06;;;;;;;8.65;2.70;;;1.30;99.90;;;;;;5000819;28;20057;-64
2021/03/18 03:36:34;;;;;;;13.70;4.97;;;1.30;99.90;;;;;;4998640;28;20096;-64
2021/03/18 03:39:00;;;;;;;8.15;2.78;;;1.30;99.90;;;;;;4979489;28;20057;-65
2021/03/18 03:41:26;;;;;;;11.75;3.83;;;1.20;99.90;;;;;;4981099;28;20041;-64
2021/03/18 03:43:52;;;;;;;13.05;2.92;;;1.30;99.90;;;;;;4997966;28;20612;-64
2021/03/18 03:46:18;;;;;;;9.73;2.90;;;1.20;99.90;;;;;;4997117;28;20109;-64
2021/03/18 03:48:44;;;;;;;6.88;3.22;;;1.20;99.90;;;;;;4997679;28;20117;-64
2021/03/18 03:51:10;;;;;;;5.15;2.40;;;1.30;99.90;;;;;;4998549;28;20046;-64
2021/03/18 03:53:54;;;;;;;11.80;3.05;;;1.30;99.90;;;;;;4997511;28;20046;-65
2021/03/18 03:56:27;;;;;;;12.27;2.72;;;1.30;99.90;;;;;;4998429;28;20387;-65
2021/03/18 03:59:19;;;;;;;11.35;2.97;;;1.20;99.90;;;;;;4997320;28;20038;-64
2021/03/18 04:01:47;;;;;;;13.23;3.67;;;1.20;99.90;;;;;;4998421;28;20154;-64
2021/03/18 04:04:18;;;;;;;10.93;3.25;;;1.20;99.90;;;;;;4999271;28;20100;-64
2021/03/18 04:06:45;;;;;;;11.63;3.22;;;1.20;99.90;;;;;;5000089;28;20065;-65
2021/03/18 04:09:14;;;;;;;5.38;2.97;;;1.40;99.90;;;;;;4999625;28;20458;-64
2021/03/18 04:11:41;;;;;;;9.82;3.03;;;1.30;99.90;;;;;;5000626;28;20054;-64
2021/03/18 04:14:10;;;;;;;9.85;3.60;;;1.30;99.90;;;;;;4999748;28;20544;-64
2021/03/18 04:16:37;;;;;;;13.38;3.78;;;1.30;99.90;;;;;;4998500;28;20065;-64
2021/03/18 04:19:04;;;;;;;11.02;3.75;;;1.30;99.90;;;;;;4997853;28;20080;-64
2021/03/18 04:21:34;;;;;;;16.45;3.50;;;1.30;99.90;;;;;;4998140;28;20057;-64
2021/03/18 04:24:02;;;;;;;14.10;3.47;;;1.30;99.90;;;;;;4996556;28;20030;-64
2021/03/18 04:26:30;;;;;;;8.63;3.58;;;1.40;99.90;;;;;;4999736;28;20030;-65
2021/03/18 04:28:57;;;;;;;14.23;3.78;;;1.40;99.90;;;;;;5001135;28;20480;-65
2021/03/18 04:31:24;;;;;;;11.32;3.38;;;1.40;99.90;;;;;;4995394;28;20157;-64
2021/03/18 04:33:49;;;;;;;12.80;4.68;;;1.40;99.90;;;;;;4998480;28;20038;-64
2021/03/18 04:36:15;;;;;;;8.50;3.45;;;1.40;99.90;;;;;;4997406;28;20092;-64
2021/03/18 04:38:41;;;;;;;10.90;3.75;;;1.40;99.90;;;;;;4997491;28;20125;-64
2021/03/18 04:41:08;;;;;;;16.27;3.45;;;1.40;99.90;;;;;;4999593;28;20128;-65
2021/03/18 04:43:37;;;;;;;11.73;3.72;;;1.40;99.90;;;;;;4999467;28;20041;-64
2021/03/18 04:46:07;;;;;;;16.58;4.45;;;1.50;99.90;;;;;;5000737;28;20481;-64
2021/03/18 04:48:34;;;;;;;9.88;3.85;;;1.50;99.90;;;;;;4997698;28;20149;-65
2021/03/18 04:51:00;;;;;;;12.60;3.92;;;1.70;99.90;;;;;;4996928;28;20049;-65
2021/03/18 04:53:26;;;;;;;12.23;3.90;;;1.50;99.90;;;;;;4994403;28;20751;-65
2021/03/18 04:55:53;;;;;;;12.95;4.72;;;1.60;99.90;;;;;;4997585;28;20046;-65
2021/03/18 04:58:20;;;;;;;8.95;3.65;;;1.60;99.90;;;;;;4997652;28;20054;-65
2021/03/18 05:00:46;;;;;;;9.55;3.75;;;1.50;99.90;;;;;;4997311;28;20034;-64
2021/03/18 05:03:12;;;;;;;12.88;4.10;;;1.60;99.90;;;;;;4995994;28;20108;-64
2021/03/18 05:05:38;;;;;;;10.95;3.95;;;1.50;99.90;;;;;;5001172;28;20039;-64
2021/03/18 05:08:05;;;;;;;16.25;4.97;;;1.50;99.90;;;;;;4995013;28;20073;-65
2021/03/18 05:10:35;;;;;;;12.70;3.88;;;1.50;99.90;;;;;;4995154;28;20093;-65
2021/03/18 05:13:05;;;;;;;15.23;4.57;;;1.60;99.90;;;;;;4996611;28;20038;-64
2021/03/18 05:15:32;;;;;;;11.00;3.67;;;1.60;99.90;;;;;;4996166;28;20030;-64
2021/03/18 05:17:58;;;;;;;9.98;4.15;;;1.60;99.90;;;;;;4996556;28;20113;-65
2021/03/18 05:20:25;;;;;;;12.90;4.22;;;1.60;99.90;;;;;;4996841;28;20097;-65
2021/03/18 05:22:52;;;;;;;8.55;3.35;;;1.60;99.90;;;;;;4995720;28;20034;-64
2021/03/18 05:25:21;;;;;;;10.70;3.85;;;1.60;99.90;;;;;;4997518;28;20042;-65
2021/03/18 05:27:47;;;;;;;11.05;4.43;;;1.70;99.90;;;;;;4996843;28;20391;-64
2021/03/18 05:30:14;;;;;;;8.45;3.88;;;1.60;99.90;;;;;;4999233;28;20050;-64
2021/03/18 05:32:42;;;;;;;11.25;4.32;;;1.70;99.90;;;;;;4996349;28;20046;-64
2021/03/18 05:35:09;;;;;;;8.27;3.88;;;1.70;99.90;;;;;;4998868;28;20096;-64
2021/03/18 05:37:35;;;;;;;10.60;4.40;;;1.70;99.90;;;;;;4999720;28;20144;-64
2021/03/18 05:40:04;;;;;;;9.95;3.78;;;1.70;99.90;;;;;;4998773;28;20053;-64
2021/03/18 05:42:32;;;;;;;11.77;4.47;;;1.70;99.90;;;;;;4998623;28;20061;-65
2021/03/18 05:44:58;;;;;;;13.95;4.05;;;1.70;99.90;;;;;;5002422;28;20080;-64
2021/03/18 05:47:25;;;;;;;7.30;3.20;;;1.80;99.90;;;;;;4998984;28;20037;-65
2021/03/18 05:49:51;;;;;;;11.30;4.70;;;1.80;99.90;;;;;;4997790;28;20170;-65
2021/03/18 05:52:19;;;;;;;9.27;3.45;;;1.80;99.90;;;;;;4999602;28;20030;-65
2021/03/18 05:54:49;;;;;;;10.80;4.10;;;1.80;99.90;;;;;;4996043;28;20042;-64
2021/03/18 05:57:17;;;;;;;15.60;3.90;;;1.90;99.90;;;;;;4997033;28;20400;-64
2021/03/18 05:59:45;;;;;;;11.15;4.10;;;1.90;99.90;;;;;;4998197;28;20046;-64
2021/03/18 06:02:12;;;;;;;12.73;4.32;;;1.90;99.90;;;;;;5001892;28;20042;-64
2021/03/18 06:04:38;;;;;;;16.05;5.15;;;1.90;99.90;;;;;;5004527;28;20041;-65
2021/03/18 06:07:05;;;;;;;15.93;4.22;;;2.10;99.90;;;;;;5001789;28;20038;-65
2021/03/18 06:09:32;;;;;;;12.23;4.25;;;2.00;99.90;;;;;;5003585;28;20101;-65
2021/03/18 06:11:58;;;;;;;8.93;3.67;;;2.00;99.90;;;;;;5000347;28;20042;-64
2021/03/18 06:14:24;;;;;;;14.15;4.05;;;2.00;99.90;;;;;;5002264;28;20492;-64
2021/03/18 06:16:53;;;;;;;11.70;4.32;;;2.00;99.90;;;;;;5002012;28;20038;-64
2021/03/18 06:19:18;;;;;;;12.63;4.57;;;2.00;99.90;;;;;;4998674;28;20045;-64
2021/03/18 06:21:47;;;;;;;16.17;4.80;;;2.10;99.90;;;;;;5000852;28;20050;-64
2021/03/18 06:24:14;;;;;;;11.15;4.63;;;2.00;99.90;;;;;;5000344;28;20714;-64
2021/03/18 06:26:40;;;;;;;15.20;4.82;;;2.10;99.90;;;;;;4997562;28;20044;-64
2021/03/18 06:29:27;;;;;;;14.32;4.22;;;2.10;99.90;;;;;;4998405;28;20500;-64
2021/03/18 06:31:53;;;;;;;13.35;5.05;;;2.20;99.90;;;;;;4998187;28;20062;-64
2021/03/18 06:34:40;;;;;;;10.95;4.57;;;2.20;99.90;;;;;;4999873;28;20045;-64
2021/03/18 06:37:35;;;;;;;11.95;5.38;;;2.20;99.90;;;;;;5001825;28;20542;-64
2021/03/18 06:40:18;;;;;;;10.63;4.95;;;2.20;99.90;;;;;;4997670;28;20073;-64
2021/03/18 06:43:01;;;;;;;12.88;6.13;;;2.30;99.90;;;;;;4995085;28;20045;-64
2021/03/18 06:45:42;;;;;;;9.98;3.80;;;2.40;99.90;;;;;;5001130;28;20033;-64
2021/03/18 06:48:15;;;;;;;11.75;4.40;;;2.40;99.90;;;;;;4995613;28;20121;-64
2021/03/18 06:50:44;;;;;;;15.75;4.57;;;2.40;99.90;;;;;;5000858;28;20154;-64
2021/03/18 06:53:25;;;;;;;15.02;5.28;;;2.50;99.90;;;;;;4981370;28;20033;-64
2021/03/18 06:55:52;;;;;;;15.48;5.15;;;2.50;99.90;;;;;;4997904;28;20034;-64
2021/03/18 06:58:25;;;;;;;13.65;4.60;;;2.60;99.90;;;;;;4995561;28;20065;-64
2021/03/18 07:00:57;;;;;;;12.45;5.30;;;2.50;99.90;;;;;;4996690;28;20065;-64
2021/03/18 07:03:37;;;;;;;11.50;4.30;;;2.60;99.90;;;;;;4998562;28;20038;-64
2021/03/18 07:06:06;;;;;;;9.38;4.03;;;2.70;99.90;;;;;;5002139;28;20176;-64
2021/03/18 07:08:33;;;;;;;27.27;6.22;;;2.70;99.90;;;;;;4996919;28;20046;-65
2021/03/18 07:11:00;;;;;;;34.17;5.20;;;2.80;99.90;;;;;;5002401;28;20052;-64
2021/03/18 07:13:31;;;;;;;31.83;7.47;;;2.80;99.90;;;;;;4998277;28;20041;-64
2021/03/18 07:16:08;;;;;;;22.92;4.80;;;2.90;99.90;;;;;;4998633;28;20044;-64
2021/03/18 07:18:35;;;;;;;11.52;4.03;;;3.00;99.90;;;;;;4998183;28;20612;-64
2021/03/18 07:21:11;;;;;;;8.23;4.53;;;3.00;99.90;;;;;;5003227;28;20131;-64
2021/03/18 07:23:43;;;;;;;14.95;4.70;;;3.00;99.90;;;;;;4997225;28;20488;-64
2021/03/18 07:26:15;;;;;;;18.13;5.25;;;3.10;99.90;;;;;;4999601;28;20044;-64
2021/03/18 07:29:15;;;;;;;22.15;5.90;;;3.10;99.90;;;;;;5000486;28;20038;-64
2021/03/18 07:31:41;;;;;;;14.20;3.92;;;3.20;99.90;;;;;;4992520;28;20054;-65
2021/03/18 07:34:08;;;;;;;13.82;4.75;;;3.20;99.90;;;;;;5002540;28;20042;-65
2021/03/18 07:36:34;;;;;;;21.27;5.15;;;3.30;99.90;;;;;;4996332;28;20039;-65
2021/03/18 07:39:00;;;;;;;16.73;5.40;;;3.30;99.90;;;;;;4998402;28;20069;-65
2021/03/18 07:41:27;;;;;;;20.27;5.47;;;3.30;99.90;;;;;;4996214;28;20481;-65
2021/03/18 07:43:54;;;;;;;14.30;4.93;;;3.40;99.90;;;;;;5003177;28;20111;-65
2021/03/18 07:46:21;;;;;;;22.33;5.50;;;3.50;99.90;;;;;;4999374;28;20409;-65
2021/03/18 07:48:54;;;;;;;17.55;6.25;;;3.50;99.90;;;;;;4981798;28;20035;-65
2021/03/18 07:51:20;;;;;;;17.98;4.82;;;3.60;99.90;;;;;;5000817;28;20069;-65
2021/03/18 07:53:53;;;;;;;13.95;5.40;;;3.70;99.90;;;;;;4999453;28;20146;-65
2021/03/18 07:56:19;;;;;;;17.15;4.93;;;3.70;99.90;;;;;;4996517;28;20150;-65
2021/03/18 07:58:47;;;;;;;17.40;5.57;;;3.80;99.90;;;;;;4997719;28;21549;-65
2021/03/18 08:01:32;;;;;;;11.48;4.72;;;3.80;99.90;;;;;;4996970;28;20140;-65
2021/03/18 08:04:00;;;;;;;16.85;5.03;;;3.90;99.90;;;;;;4999851;28;20112;-65
2021/03/18 08:06:43;;;;;;;12.98;5.00;;;4.00;99.90;;;;;;4999367;28;20038;-65
2021/03/18 08:09:10;;;;;;;13.63;4.88;;;4.00;99.90;;;;;;4997391;28;20057;-65
2021/03/18 08:11:37;;;;;;;17.67;4.88;;;4.10;99.90;;;;;;4996248;28;20046;-65
2021/03/18 08:14:23;;;;;;;21.13;5.03;;;4.10;99.90;;;;;;4997297;28;20096;-65
2021/03/18 08:16:49;;;;;;;22.50;5.97;;;4.20;99.90;;;;;;5002380;28;20046;-65
2021/03/18 08:19:20;;;;;;;16.30;5.43;;;4.30;99.90;;;;;;4998077;28;20488;-65
2021/03/18 08:21:53;;;;;;;17.83;5.88;;;4.30;99.90;;;;;;4996977;28;20512;-65
2021/03/18 08:24:21;;;;;;;14.23;5.88;;;4.30;99.90;;;;;;4995567;28;20050;-65
2021/03/18 08:26:50;;;;;;;22.85;5.78;;;4.40;99.90;;;;;;4997504;28;20053;-65
2021/03/18 08:29:37;;;;;;;20.63;5.32;;;4.50;99.90;;;;;;4980678;28;20053;-65
2021/03/18 08:32:13;;;;;;;22.77;6.22;;;4.50;99.90;;;;;;4996317;28;20040;-65
2021/03/18 08:34:50;;;;;;;17.98;5.68;;;4.50;99.90;;;;;;5000033;28;20052;-65
2021/03/18 08:37:34;;;;;;;21.60;6.13;;;4.60;99.90;;;;;;4994804;28;20038;-65
2021/03/18 08:40:04;;;;;;;16.75;6.07;;;4.70;99.90;;;;;;4997969;28;20120;-65
2021/03/18 08:42:30;;;;;;;20.05;5.80;;;4.90;99.90;;;;;;4995910;28;20048;-65
2021/03/18 08:44:57;;;;;;;19.20;5.22;;;4.90;99.90;;;;;;5000311;28;20034;-65
2021/03/18 08:47:39;;;;;;;18.27;5.47;;;5.00;99.90;;;;;;4996691;28;20109;-65
2021/03/18 08:50:08;;;;;;;16.08;4.00;;;5.10;99.90;;;;;;4999921;28;20049;-65
2021/03/18 08:52:43;;;;;;;21.38;5.40;;;5.20;99.90;;;;;;4996398;28;20046;-65
2021/03/18 08:55:11;;;;;;;21.60;4.97;;;5.30;99.90;;;;;;4998745;28;20089;-65
2021/03/18 08:57:38;;;;;;;23.10;5.88;;;5.30;99.90;;;;;;4997847;28;20492;-65
2021/03/18 09:00:15;;;;;;;15.90;4.88;;;5.40;99.90;;;;;;4995617;28;20046;-65
2021/03/18 09:02:42;;;;;;;18.02;3.83;;;5.40;99.90;;;;;;4999274;28;20045;-65
2021/03/18 09:05:08;;;;;;;16.33;4.63;;;5.40;99.90;;;;;;5001232;28;20049;-65
2021/03/18 09:07:34;;;;;;;20.40;4.63;;;5.50;99.90;;;;;;4997813;28;20050;-65
2021/03/18 09:10:01;;;;;;;14.75;3.90;;;5.40;99.90;;;;;;5000405;28;20038;-65
2021/03/18 09:12:36;;;;;;;20.92;3.90;;;5.50;99.90;;;;;;4994207;28;20054;-65
2021/03/18 09:15:24;;;;;;;18.20;3.58;;;5.50;99.90;;;;;;4996433;28;20038;-65
2021/03/18 09:17:56;;;;;;;21.27;4.20;;;5.60;99.90;;;;;;4981543;28;20531;-65
2021/03/18 09:20:26;;;;;;;15.15;4.32;;;5.60;99.90;;;;;;4998277;28;20053;-65
2021/03/18 09:22:53;;;;;;;21.23;4.65;;;5.70;99.90;;;;;;4996518;28;20049;-65
2021/03/18 09:25:25;;;;;;;19.38;3.38;;;5.70;99.90;;;;;;5000881;28;20468;-65
2021/03/18 09:27:52;;;;;;;20.40;3.55;;;5.70;99.90;;;;;;4997874;28;20249;-65
2021/03/18 09:30:23;;;;;;;15.63;3.55;;;5.80;99.90;;;;;;4998210;28;20041;-65
2021/03/18 09:32:50;;;;;;;20.58;3.53;;;5.80;99.90;;;;;;4993698;28;20114;-65
2021/03/18 09:35:17;;;;;;;19.95;4.00;;;5.80;99.90;;;;;;5001499;28;20041;-65
2021/03/18 09:37:45;;;;;;;23.17;4.85;;;5.80;99.90;;;;;;5001737;28;20130;-65
2021/03/18 09:40:13;;;;;;;17.88;3.90;;;5.90;99.90;;;;;;5005788;28;20050;-66
2021/03/18 09:42:39;;;;;;;20.23;3.75;;;6.00;99.90;;;;;;5000185;28;20047;-65
2021/03/18 09:45:07;;;;;;;21.48;4.57;;;6.10;99.90;;;;;;5001961;28;20030;-65
2021/03/18 09:47:35;;;;;;;21.05;3.90;;;6.30;99.90;;;;;;5002880;28;20034;-66
2021/03/18 09:50:01;;;;;;;51.97;7.63;;;6.50;99.90;;;;;;5003304;28;20156;-66
2021/03/18 09:52:29;;;;;;;16.08;3.30;;;6.60;99.90;;;;;;4997640;28;20038;-66
2021/03/18 09:54:56;;;;;;;18.98;3.20;;;6.60;99.90;;;;;;4999804;28;20079;-66
2021/03/18 09:57:26;;;;;;;19.33;4.85;;;6.80;99.90;;;;;;4999032;28;20065;-66
2021/03/18 09:59:52;;;;;;;21.27;3.92;;;6.90;99.90;;;;;;5003514;28;20092;-66
2021/03/18 10:02:25;;;;;;;47.55;5.97;;;7.00;99.90;;;;;;5003279;28;20493;-66
2021/03/18 10:04:51;;;;;;;36.17;4.40;;;7.20;99.90;;;;;;5004154;28;20030;-66
2021/03/18 10:07:17;;;;;;;51.80;6.80;;;7.30;99.90;;;;;;5000535;28;20116;-66
2021/03/18 10:09:45;;;;;;;27.25;6.22;;;7.40;99.90;;;;;;5002815;28;20057;-65
2021/03/18 10:12:21;;;;;;;26.95;4.93;;;7.50;99.90;;;;;;5002858;28;20038;-66
2021/03/18 10:15:05;;;;;;;22.45;4.82;;;7.70;99.90;;;;;;5000196;28;20042;-66
2021/03/18 10:17:41;;;;;;;25.90;4.65;;;7.80;99.90;;;;;;5002625;28;20401;-66
2021/03/18 10:20:18;;;;;;;21.45;4.40;;;7.90;99.70;;;;;;5000795;28;20412;-66
2021/03/18 10:22:49;;;;;;;23.92;4.65;;;7.90;99.20;;;;;;5000390;28;20033;-66
2021/03/18 10:25:23;;;;;;;19.02;4.88;;;8.00;99.00;;;;;;4998371;28;20041;-66
2021/03/18 10:27:59;;;;;;;24.13;4.43;;;8.10;99.00;;;;;;4986215;28;20486;-66
2021/03/18 10:30:26;;;;;;;21.52;4.75;;;8.30;99.10;;;;;;5000933;28;20165;-66
2021/03/18 10:33:03;;;;;;;19.88;4.15;;;8.40;98.90;;;;;;4997845;28;20049;-66
2021/03/18 10:35:30;;;;;;;25.90;4.55;;;8.40;98.70;;;;;;4999945;28;20049;-66
2021/03/18 10:37:56;;;;;;;26.38;5.22;;;8.30;98.50;;;;;;4999969;28;20034;-66
2021/03/18 10:40:25;;;;;;;23.27;4.30;;;8.40;98.60;;;;;;5001034;28;20056;-66
2021/03/18 10:42:53;;;;;;;20.83;4.13;;;8.30;98.20;;;;;;4996684;28;20061;-66
2021/03/18 10:45:43;;;;;;;23.08;4.18;;;8.10;96.10;;;;;;5002078;28;20038;-66
2021/03/18 10:48:09;;;;;;;31.25;5.05;;;8.00;97.80;;;;;;5001165;28;20034;-66
2021/03/18 10:50:36;;;;;;;19.48;4.30;;;8.00;98.40;;;;;;5000741;28;20050;-66
2021/03/18 10:53:05;;;;;;;20.67;3.70;;;8.00;98.40;;;;;;5002803;28;20038;-66
2021/03/18 10:55:35;;;;;;;25.33;5.15;;;8.00;98.50;;;;;;5004123;28;20046;-66
2021/03/18 10:58:05;;;;;;;17.65;3.78;;;8.00;97.80;;;;;;4997394;28;20042;-66
2021/03/18 11:00:34;;;;;;;16.38;3.30;;;8.00;97.70;;;;;;4983671;28;20046;-66
2021/03/18 11:03:06;;;;;;;20.45;3.13;;;7.90;96.80;;;;;;4999716;28;20053;-66
2021/03/18 11:05:45;;;;;;;21.77;3.97;;;7.90;96.70;;;;;;4982821;28;20501;-65
2021/03/18 11:08:12;;;;;;;21.90;3.95;;;7.70;96.20;;;;;;4996943;28;20073;-66
2021/03/18 11:10:47;;;;;;;23.08;3.08;;;7.80;97.70;;;;;;5000188;28;20042;-66
2021/03/18 11:13:24;;;;;;;19.10;2.22;;;7.90;98.10;;;;;;4979222;28;20046;-66
2021/03/18 11:16:02;;;;;;;10.73;2.13;;;8.10;97.50;;;;;;5001973;28;20041;-66
2021/03/18 11:18:39;;;;;;;16.00;2.97;;;8.40;98.00;;;;;;4996277;28;20033;-66
2021/03/18 11:21:19;;;;;;;8.05;1.77;;;8.70;96.90;;;;;;5002489;28;20042;-66
2021/03/18 11:23:45;;;;;;;12.75;1.95;;;8.80;96.10;;;;;;4997606;28;20081;-66
2021/03/18 11:26:11;;;;;;;13.43;1.73;;;8.70;94.50;;;;;;5000040;28;20088;-66
2021/03/18 11:28:48;;;;;;;8.55;2.38;;;8.70;94.10;;;;;;4995896;28;20516;-66
2021/03/18 11:31:17;;;;;;;14.40;1.63;;;8.60;94.50;;;;;;4998972;28;20038;-66
2021/03/18 11:33:43;;;;;;;11.60;1.63;;;8.60;94.50;;;;;;5003240;28;20048;-66
2021/03/18 11:36:09;;;;;;;8.88;1.92;;;8.70;95.20;;;;;;5000139;28;20046;-65
2021/03/18 11:38:35;;;;;;;12.68;1.70;;;8.50;93.80;;;;;;4999108;28;20485;-66
2021/03/18 11:41:02;;;;;;;11.63;2.55;;;8.40;93.70;;;;;;4999632;28;20436;-66
2021/03/18 11:43:28;;;;;;;8.98;1.35;;;8.40;92.70;;;;;;4999492;28;20042;-66
2021/03/18 11:45:55;;;;;;;9.38;1.95;;;8.30;93.70;;;;;;5001931;28;20096;-66
2021/03/18 11:48:21;;;;;;;13.60;2.85;;;8.40;94.40;;;;;;4999016;28;20061;-66
2021/03/18 11:50:48;;;;;;;11.65;1.60;;;8.50;93.90;;;;;;4998382;28;20060;-66
2021/03/18 11:53:14;;;;;;;9.88;1.13;;;8.40;92.70;;;;;;4998554;28;20088;-66
2021/03/18 11:55:40;;;;;;;14.25;1.85;;;8.40;93.50;;;;;;5000860;28;20210;-66
2021/03/18 11:58:06;;;;;;;13.68;2.05;;;8.30;94.00;;;;;;5001702;28;20416;-66
2021/03/18 12:00:36;;;;;;;12.30;1.95;;;8.30;94.30;;;;;;5000511;28;20520;-66
2021/03/18 12:03:04;;;;;;;12.18;1.50;;;8.30;94.30;;;;;;5000514;28;20071;-66
2021/03/18 12:05:31;;;;;;;15.52;2.05;;;8.30;92.70;;;;;;5001070;28;20112;-66
2021/03/18 12:07:57;;;;;;;12.60;1.95;;;8.30;93.70;;;;;;4998724;28;20065;-66
2021/03/18 12:10:23;;;;;;;10.80;2.08;;;8.30;94.90;;;;;;4999313;28;20084;-65
2021/03/18 12:12:49;;;;;;;10.55;1.80;;;8.40;95.40;;;;;;4999877;28;20069;-65
2021/03/18 12:15:16;;;;;;;9.43;1.55;;;8.40;95.60;;;;;;4998756;28;20066;-66
2021/03/18 12:17:42;;;;;;;10.95;2.38;;;8.40;95.00;;;;;;4996366;28;20460;-66
2021/03/18 12:20:12;;;;;;;10.77;1.90;;;8.30;95.70;;;;;;4997301;28;20056;-65
2021/03/18 12:22:38;;;;;;;7.88;1.40;;;7.90;95.80;;;;;;4997742;28;20074;-66
2021/03/18 12:25:06;;;;;;;13.73;1.83;;;7.70;95.70;;;;;;4999731;28;20084;-66
2021/03/18 12:27:33;;;;;;;8.80;1.50;;;7.60;96.00;;;;;;4993363;28;20034;-66
2021/03/18 12:29:59;;;;;;;10.95;2.05;;;7.60;97.40;;;;;;4997472;28;20038;-66
2021/03/18 12:32:25;;;;;;;6.95;1.60;;;7.70;96.70;;;;;;4998434;28;20033;-66
2021/03/18 12:34:51;;;;;;;11.68;2.97;;;7.90;97.20;;;;;;4983092;28;20117;-66
2021/03/18 12:37:18;;;;;;;11.68;1.50;;;7.90;96.40;;;;;;5001651;28;20034;-66
2021/03/18 12:39:45;;;;;;;14.00;1.85;;;7.80;96.20;;;;;;4997275;28;20066;-65
2021/03/18 12:42:12;;;;;;;11.55;2.53;;;7.70;96.30;;;;;;4995801;28;20037;-66
2021/03/18 12:44:39;;;;;;;9.30;1.55;;;7.60;95.60;;;;;;4997954;28;20069;-65
2021/03/18 12:47:07;;;;;;;9.93;2.03;;;7.90;97.10;;;;;;4997675;28;20040;-66
2021/03/18 12:49:33;;;;;;;14.25;2.55;;;7.80;96.60;;;;;;4996907;28;20112;-66
2021/03/18 12:51:59;;;;;;;9.20;1.52;;;7.90;97.10;;;;;;4995891;28;20037;-66
2021/03/18 12:54:24;;;;;;;6.10;1.05;;;7.70;97.20;;;;;;4986210;28;20506;-66
2021/03/18 12:56:50;;;;;;;10.00;1.33;;;7.70;96.40;;;;;;4981944;28;20034;-66
2021/03/18 12:59:16;;;;;;;8.60;1.27;;;7.60;96.50;;;;;;4995135;28;20069;-66
2021/03/18 13:01:42;;;;;;;11.38;2.75;;;7.50;96.10;;;;;;4995441;28;20054;-66
2021/03/18 13:04:08;;;;;;;14.00;2.15;;;7.60;96.10;;;;;;4999064;28;20089;-65